Time;durP1;ratioP1;P1;durP2;ratioP2;P2;SDS_P1;SDS_P2;PMS_P1;PMS_P2;Temp;Humidity;BMP_temperature;BMP_pressure;BME280_temperature;BME280_humidity;BME280_pressure;Samples;Min_cycle;Max_cycle;Signal;HPM_P1;HPM_P2
2022/03/25 00:01:41;;;;;;;46.67;19.65;;;8.50;96.60;;;;;;5081278;28;20031;-70
2022/03/25 00:04:07;;;;;;;41.45;19.42;;;8.50;96.70;;;;;;5082606;28;20371;-69
2022/03/25 00:06:35;;;;;;;45.65;20.48;;;8.50;96.90;;;;;;5080903;28;20020;-70
2022/03/25 00:09:00;;;;;;;47.72;19.63;;;8.40;97.00;;;;;;5081457;28;20024;-70
2022/03/25 00:11:26;;;;;;;40.42;20.38;;;8.30;97.10;;;;;;5070621;28;20222;-71
2022/03/25 00:13:52;;;;;;;53.05;20.52;;;8.30;97.40;;;;;;5063360;28;20241;-71
2022/03/25 00:16:18;;;;;;;57.58;21.58;;;8.20;97.70;;;;;;5061988;28;20021;-70
2022/03/25 00:18:43;;;;;;;60.13;22.23;;;8.20;97.90;;;;;;5078534;28;20110;-70
2022/03/25 00:21:09;;;;;;;50.42;20.98;;;8.20;97.90;;;;;;5062918;28;20024;-70
2022/03/25 00:23:35;;;;;;;54.22;21.70;;;8.10;98.00;;;;;;5061944;28;20211;-71
2022/03/25 00:26:01;;;;;;;54.03;22.00;;;8.10;98.10;;;;;;5063308;28;20016;-70
2022/03/25 00:28:28;;;;;;;46.15;22.08;;;8.10;98.10;;;;;;5062951;28;20088;-70
2022/03/25 00:30:54;;;;;;;45.67;20.88;;;8.00;98.20;;;;;;5061821;28;20261;-70
2022/03/25 00:33:20;;;;;;;42.97;20.75;;;8.00;98.70;;;;;;5061789;28;20029;-70
2022/03/25 00:35:46;;;;;;;47.60;21.40;;;7.90;98.50;;;;;;5078162;28;20017;-69
2022/03/25 00:38:12;;;;;;;43.80;21.10;;;7.90;98.50;;;;;;5064746;28;20031;-71
2022/03/25 00:40:38;;;;;;;45.92;20.38;;;7.80;98.50;;;;;;5081894;28;20035;-71
2022/03/25 00:43:06;;;;;;;48.60;20.95;;;7.80;98.50;;;;;;5081995;28;20028;-70
2022/03/25 00:45:32;;;;;;;47.78;21.98;;;7.80;98.50;;;;;;5082847;28;20311;-71
2022/03/25 00:47:59;;;;;;;45.03;21.02;;;7.80;98.50;;;;;;5086989;28;20028;-71
2022/03/25 00:50:26;;;;;;;49.38;22.33;;;7.70;98.50;;;;;;5086301;28;20092;-71
2022/03/25 00:52:51;;;;;;;45.67;22.55;;;7.70;98.70;;;;;;5102117;28;20056;-70
2022/03/25 00:55:18;;;;;;;42.95;21.10;;;7.60;98.80;;;;;;5086544;28;20248;-71
2022/03/25 00:57:43;;;;;;;40.25;21.50;;;7.60;99.00;;;;;;5101058;28;20369;-70
2022/03/25 01:00:09;;;;;;;41.45;21.95;;;7.60;99.00;;;;;;5086432;28;20036;-70
2022/03/25 01:02:35;;;;;;;44.97;20.75;;;7.60;99.10;;;;;;5086368;28;20106;-69
2022/03/25 01:05:01;;;;;;;47.25;22.30;;;7.50;99.50;;;;;;5086392;28;20033;-70
2022/03/25 01:07:27;;;;;;;46.05;22.27;;;7.50;99.30;;;;;;5068448;28;20024;-70
2022/03/25 01:09:53;;;;;;;43.42;21.70;;;7.50;99.30;;;;;;5086402;28;20031;-70
2022/03/25 01:12:21;;;;;;;52.33;21.80;;;7.50;99.30;;;;;;5081644;28;20059;-70
2022/03/25 01:14:47;;;;;;;45.95;22.02;;;7.50;99.30;;;;;;5066495;28;20021;-70
2022/03/25 01:17:13;;;;;;;43.65;22.08;;;7.40;99.40;;;;;;5066141;28;20216;-71
2022/03/25 01:19:39;;;;;;;46.70;22.67;;;7.40;99.40;;;;;;5064906;28;20044;-72
2022/03/25 01:22:05;;;;;;;49.20;23.30;;;7.30;99.40;;;;;;5064819;28;20095;-70
2022/03/25 01:24:30;;;;;;;46.13;23.40;;;7.30;99.50;;;;;;5065146;28;20088;-70
2022/03/25 01:26:56;;;;;;;47.70;23.73;;;7.20;99.70;;;;;;5081577;28;20025;-71
2022/03/25 01:29:22;;;;;;;49.00;24.00;;;7.20;99.80;;;;;;5065788;28;20033;-70
2022/03/25 01:31:48;;;;;;;47.22;24.05;;;7.20;99.90;;;;;;5065710;28;20181;-70
2022/03/25 01:34:15;;;;;;;49.13;24.00;;;7.20;99.90;;;;;;5068203;28;20028;-71
2022/03/25 01:36:41;;;;;;;48.20;23.70;;;7.10;99.90;;;;;;5085708;28;20027;-71
2022/03/25 01:39:06;;;;;;;49.03;24.80;;;7.10;99.90;;;;;;5085799;28;20024;-71
2022/03/25 01:41:32;;;;;;;47.47;24.35;;;7.00;99.90;;;;;;5085382;28;20325;-70
2022/03/25 01:44:00;;;;;;;48.60;25.02;;;6.90;99.90;;;;;;5085795;28;20016;-70
2022/03/25 01:46:26;;;;;;;50.78;24.63;;;6.90;99.90;;;;;;5101519;28;20028;-70
2022/03/25 01:48:53;;;;;;;52.20;24.40;;;6.90;99.90;;;;;;5101237;28;20084;-69
2022/03/25 01:51:29;;;;;;;54.65;24.02;;;6.90;99.90;;;;;;5100538;28;20066;-71
2022/03/25 01:54:01;;;;;;;51.08;25.10;;;6.80;99.90;;;;;;5100437;28;20123;-70
2022/03/25 01:56:26;;;;;;;51.50;24.35;;;6.80;99.90;;;;;;5084930;28;20031;-72
2022/03/25 01:58:52;;;;;;;58.03;25.60;;;6.70;99.90;;;;;;5082882;28;20224;-70
2022/03/25 02:01:18;;;;;;;50.78;24.45;;;6.70;99.90;;;;;;5084616;28;20025;-71
2022/03/25 02:03:44;;;;;;;56.05;25.08;;;6.70;99.90;;;;;;5084582;28;20047;-69
2022/03/25 02:06:11;;;;;;;56.42;25.08;;;6.60;99.90;;;;;;5084255;28;20032;-69
2022/03/25 02:08:37;;;;;;;50.85;25.10;;;6.60;99.90;;;;;;5084607;28;20024;-71
2022/03/25 02:11:02;;;;;;;50.00;24.63;;;6.70;99.90;;;;;;5100097;28;20357;-68
2022/03/25 02:13:28;;;;;;;49.95;25.42;;;6.60;99.90;;;;;;5084094;28;20353;-70
2022/03/25 02:15:55;;;;;;;52.13;25.02;;;6.60;99.90;;;;;;5083493;28;20032;-69
2022/03/25 02:18:21;;;;;;;49.97;24.20;;;6.60;99.90;;;;;;5084196;28;20024;-72
2022/03/25 02:20:49;;;;;;;49.38;23.48;;;6.50;99.90;;;;;;5084562;28;20104;-69
2022/03/25 02:23:16;;;;;;;52.85;24.55;;;6.50;99.90;;;;;;5083697;28;20032;-70
2022/03/25 02:25:42;;;;;;;49.90;24.55;;;6.40;99.90;;;;;;5083340;28;20021;-71
2022/03/25 02:28:08;;;;;;;50.80;24.95;;;6.40;99.90;;;;;;5083787;28;20308;-70
2022/03/25 02:30:36;;;;;;;48.65;23.40;;;6.30;99.90;;;;;;5083224;28;20231;-71
2022/03/25 02:33:04;;;;;;;55.38;24.52;;;6.30;99.90;;;;;;5084114;28;20016;-70
2022/03/25 02:35:47;;;;;;;49.28;24.58;;;6.40;99.90;;;;;;5069713;28;20075;-71
2022/03/25 02:38:18;;;;;;;49.58;24.75;;;6.40;99.90;;;;;;5079173;28;20033;-72
2022/03/25 02:40:45;;;;;;;50.28;24.48;;;6.40;99.90;;;;;;5061637;28;20338;-70
2022/03/25 02:43:11;;;;;;;47.63;23.00;;;6.40;99.90;;;;;;5079582;28;20308;-69
2022/03/25 02:45:38;;;;;;;51.22;25.48;;;6.40;99.90;;;;;;5064035;28;20088;-71
2022/03/25 02:48:04;;;;;;;54.17;23.83;;;6.30;99.90;;;;;;5079998;28;20021;-70
2022/03/25 02:50:30;;;;;;;53.15;25.23;;;6.20;99.90;;;;;;5063833;28;20193;-70
2022/03/25 02:52:57;;;;;;;52.72;24.90;;;6.20;99.90;;;;;;5079021;28;20068;-71
2022/03/25 02:55:24;;;;;;;55.38;26.30;;;6.10;99.90;;;;;;5062371;28;20037;-71
2022/03/25 02:57:49;;;;;;;52.78;25.65;;;6.20;99.90;;;;;;5077702;28;20017;-71
2022/03/25 03:00:15;;;;;;;51.63;23.88;;;6.10;99.90;;;;;;5063868;28;20024;-71
2022/03/25 03:02:41;;;;;;;50.67;25.30;;;6.00;99.90;;;;;;5079420;28;20196;-71
2022/03/25 03:05:07;;;;;;;48.55;24.65;;;6.00;99.90;;;;;;5063192;28;20029;-71
2022/03/25 03:07:36;;;;;;;49.08;24.42;;;6.00;99.90;;;;;;5078618;28;20021;-70
2022/03/25 03:10:05;;;;;;;54.83;26.30;;;5.90;99.90;;;;;;5078638;28;20020;-69
2022/03/25 03:12:32;;;;;;;52.78;25.15;;;5.80;99.90;;;;;;5082542;28;20017;-73
2022/03/25 03:14:58;;;;;;;56.60;24.17;;;5.80;99.90;;;;;;5098723;28;20092;-71
2022/03/25 03:17:24;;;;;;;57.08;24.95;;;5.80;99.90;;;;;;5083329;28;20025;-72
2022/03/25 03:19:50;;;;;;;57.15;25.77;;;5.90;99.90;;;;;;5082288;28;20078;-71
2022/03/25 03:22:17;;;;;;;48.13;23.88;;;5.80;99.90;;;;;;5083266;28;20095;-70
2022/03/25 03:24:43;;;;;;;47.63;24.15;;;5.80;99.90;;;;;;5083532;28;20020;-70
2022/03/25 03:27:09;;;;;;;53.20;24.52;;;5.80;99.90;;;;;;5065301;28;20296;-70
2022/03/25 03:29:36;;;;;;;52.42;25.13;;;5.80;99.90;;;;;;5083542;28;20021;-71
2022/03/25 03:32:02;;;;;;;49.90;24.33;;;5.80;99.90;;;;;;5083192;28;20012;-71
2022/03/25 03:34:29;;;;;;;50.80;24.70;;;5.80;99.90;;;;;;5077886;28;20025;-71
2022/03/25 03:36:54;;;;;;;53.47;24.88;;;5.80;99.90;;;;;;5062130;28;20033;-70
2022/03/25 03:39:20;;;;;;;50.22;24.13;;;5.70;99.90;;;;;;5078935;28;20087;-72
2022/03/25 03:41:46;;;;;;;50.53;24.60;;;5.70;99.90;;;;;;5061384;28;20024;-70
2022/03/25 03:44:11;;;;;;;51.92;24.70;;;5.60;99.90;;;;;;5062670;28;20084;-70
2022/03/25 03:46:37;;;;;;;52.00;24.42;;;5.60;99.90;;;;;;5061466;28;20027;-72
2022/03/25 03:49:03;;;;;;;50.33;23.42;;;5.50;99.90;;;;;;5078680;28;20021;-70
2022/03/25 03:51:29;;;;;;;51.33;24.63;;;5.50;99.90;;;;;;5078417;28;20025;-71
2022/03/25 03:53:54;;;;;;;50.22;23.35;;;5.40;99.90;;;;;;5063466;28;20287;-71
2022/03/25 03:56:22;;;;;;;51.30;23.55;;;5.40;99.90;;;;;;5062957;28;20303;-70
2022/03/25 03:58:48;;;;;;;53.55;24.17;;;5.40;99.90;;;;;;5076592;28;20408;-71
2022/03/25 04:01:14;;;;;;;52.90;24.75;;;5.40;99.90;;;;;;5061507;28;20017;-70
2022/03/25 04:03:39;;;;;;;52.70;24.30;;;5.40;99.90;;;;;;5062842;28;20062;-70
2022/03/25 04:06:05;;;;;;;51.53;24.85;;;5.40;99.90;;;;;;5061707;28;20013;-70
2022/03/25 04:08:31;;;;;;;50.80;24.23;;;5.40;99.90;;;;;;5078360;28;20024;-71
2022/03/25 04:10:58;;;;;;;47.25;23.20;;;5.40;99.90;;;;;;5070484;28;20036;-70
2022/03/25 04:13:24;;;;;;;56.25;26.15;;;5.30;99.90;;;;;;5082561;28;20043;-70
2022/03/25 04:15:50;;;;;;;50.55;24.90;;;5.20;99.90;;;;;;5082300;28;20024;-69
2022/03/25 04:18:17;;;;;;;46.55;23.17;;;5.20;99.90;;;;;;5082539;28;20303;-69
2022/03/25 04:20:43;;;;;;;50.33;24.05;;;5.20;99.90;;;;;;5098993;28;20020;-70
2022/03/25 04:23:08;;;;;;;48.35;23.88;;;5.30;99.90;;;;;;5086965;28;20047;-69
2022/03/25 04:25:34;;;;;;;51.70;23.95;;;5.20;99.90;;;;;;5086260;28;20058;-69
2022/03/25 04:28:01;;;;;;;45.63;23.33;;;5.10;99.90;;;;;;5068852;28;20035;-69
2022/03/25 04:30:28;;;;;;;49.40;25.83;;;5.10;99.90;;;;;;5069099;28;20057;-69
2022/03/25 04:32:55;;;;;;;53.63;24.50;;;5.00;99.90;;;;;;5086991;28;20032;-69
2022/03/25 04:35:22;;;;;;;50.70;25.52;;;5.00;99.90;;;;;;5074704;28;20033;-68
2022/03/25 04:37:48;;;;;;;54.70;24.85;;;4.90;99.90;;;;;;5065489;28;20048;-70
2022/03/25 04:40:17;;;;;;;45.95;23.65;;;5.00;99.90;;;;;;5065622;28;20052;-69
2022/03/25 04:42:44;;;;;;;51.63;23.98;;;5.10;99.90;;;;;;5081626;28;20027;-70
2022/03/25 04:45:10;;;;;;;53.33;25.13;;;5.10;99.90;;;;;;5066705;28;20016;-70
2022/03/25 04:47:35;;;;;;;56.33;24.35;;;5.00;99.90;;;;;;5065203;28;20247;-71
2022/03/25 04:50:02;;;;;;;50.03;24.02;;;5.00;99.90;;;;;;5066603;28;20017;-70
2022/03/25 04:52:27;;;;;;;53.78;24.92;;;5.00;99.90;;;;;;5066007;28;20076;-70
2022/03/25 04:54:53;;;;;;;47.92;23.77;;;5.00;99.90;;;;;;5065410;28;20024;-70
2022/03/25 04:57:19;;;;;;;48.92;24.08;;;4.90;99.90;;;;;;5066370;28;20035;-72
2022/03/25 04:59:44;;;;;;;54.65;24.50;;;4.90;99.90;;;;;;5080500;28;20033;-70
2022/03/25 05:02:10;;;;;;;56.17;25.13;;;4.80;99.90;;;;;;5066266;28;20193;-70
2022/03/25 05:04:36;;;;;;;51.67;24.55;;;4.80;99.90;;;;;;5065712;28;20106;-71
2022/03/25 05:07:02;;;;;;;47.28;23.98;;;4.80;99.90;;;;;;5065797;28;20308;-70
2022/03/25 05:09:28;;;;;;;48.35;23.58;;;4.80;99.90;;;;;;5081583;28;20020;-70
2022/03/25 05:11:54;;;;;;;52.38;24.50;;;4.70;99.90;;;;;;5081981;28;20066;-70
2022/03/25 05:14:20;;;;;;;52.35;24.67;;;4.70;99.90;;;;;;5085997;28;20016;-70
2022/03/25 05:16:52;;;;;;;52.33;24.63;;;4.60;99.90;;;;;;5084151;28;20031;-70
2022/03/25 05:19:20;;;;;;;55.97;24.38;;;4.60;99.90;;;;;;5084248;28;20060;-71
2022/03/25 05:21:45;;;;;;;52.90;25.33;;;4.70;99.90;;;;;;5084984;28;20367;-72
2022/03/25 05:24:12;;;;;;;51.90;25.00;;;4.60;99.90;;;;;;5084784;28;20041;-70
2022/03/25 05:26:38;;;;;;;52.90;26.08;;;4.60;99.90;;;;;;5085904;28;20104;-71
2022/03/25 05:29:05;;;;;;;52.35;23.73;;;4.70;99.90;;;;;;5085776;28;20056;-68
2022/03/25 05:31:31;;;;;;;48.28;23.95;;;4.70;99.90;;;;;;5085547;28;20051;-69
2022/03/25 05:33:56;;;;;;;49.05;24.10;;;4.70;99.90;;;;;;5083829;28;20200;-69
2022/03/25 05:36:22;;;;;;;52.33;24.17;;;4.70;99.90;;;;;;5065504;28;20021;-69
2022/03/25 05:38:48;;;;;;;47.55;24.52;;;4.70;99.90;;;;;;5064168;28;20037;-70
2022/03/25 05:41:14;;;;;;;55.47;26.08;;;4.70;99.90;;;;;;5080849;28;20025;-72
2022/03/25 05:43:40;;;;;;;49.17;25.90;;;4.60;99.90;;;;;;5064526;28;20327;-73
2022/03/25 05:46:05;;;;;;;51.13;25.25;;;4.60;99.90;;;;;;5065237;28;20035;-71
2022/03/25 05:48:31;;;;;;;53.53;24.80;;;4.60;99.90;;;;;;5064582;28;20304;-70
2022/03/25 05:50:57;;;;;;;52.83;25.25;;;4.50;99.90;;;;;;5080874;28;20220;-71
2022/03/25 05:53:23;;;;;;;51.78;24.45;;;4.50;99.90;;;;;;5065160;28;20091;-73
2022/03/25 05:55:49;;;;;;;49.85;24.05;;;4.50;99.90;;;;;;5065319;28;20033;-73
2022/03/25 05:58:14;;;;;;;62.10;25.35;;;4.60;99.90;;;;;;5064781;28;20350;-72
2022/03/25 06:00:40;;;;;;;47.60;24.40;;;4.60;99.90;;;;;;5078784;28;20025;-71
2022/03/25 06:03:06;;;;;;;52.70;24.25;;;4.60;99.90;;;;;;5065349;28;20078;-72
2022/03/25 06:05:32;;;;;;;56.15;25.00;;;4.60;99.90;;;;;;5064014;28;20032;-70
2022/03/25 06:07:57;;;;;;;56.80;25.60;;;4.60;99.90;;;;;;5063630;28;20029;-71
2022/03/25 06:10:23;;;;;;;56.42;26.42;;;4.50;99.90;;;;;;5080487;28;20025;-72
2022/03/25 06:12:49;;;;;;;61.65;25.95;;;4.50;99.90;;;;;;5080566;28;20093;-69
2022/03/25 06:15:15;;;;;;;62.58;24.80;;;4.50;99.90;;;;;;5064818;28;20304;-70
2022/03/25 06:17:47;;;;;;;59.85;25.77;;;4.50;99.90;;;;;;5064661;28;20032;-71
2022/03/25 06:20:17;;;;;;;55.13;23.88;;;4.50;99.90;;;;;;5080440;28;20025;-70
2022/03/25 06:22:44;;;;;;;64.22;26.55;;;4.60;99.90;;;;;;5063679;28;20239;-70
2022/03/25 06:25:11;;;;;;;56.50;25.25;;;4.60;99.90;;;;;;5080181;28;20033;-70
2022/03/25 06:27:50;;;;;;;60.17;26.15;;;4.60;99.90;;;;;;5079866;28;20076;-69
2022/03/25 06:30:16;;;;;;;53.65;25.65;;;4.60;99.90;;;;;;5079501;28;20216;-70
2022/03/25 06:32:42;;;;;;;61.03;25.85;;;4.60;99.90;;;;;;5064496;28;20031;-71
2022/03/25 06:35:08;;;;;;;64.88;26.90;;;4.70;99.90;;;;;;5073848;28;20021;-71
2022/03/25 06:37:35;;;;;;;56.92;25.58;;;4.70;99.90;;;;;;5083798;28;20170;-70
2022/03/25 06:40:01;;;;;;;64.13;26.10;;;4.80;99.90;;;;;;5099953;28;20024;-70
2022/03/25 06:42:27;;;;;;;58.85;25.33;;;4.80;99.90;;;;;;5083081;28;20103;-70
2022/03/25 06:44:53;;;;;;;66.57;25.70;;;4.80;99.90;;;;;;5083063;28;20239;-70
2022/03/25 06:47:18;;;;;;;70.60;28.15;;;4.90;99.90;;;;;;5083092;28;20207;-70
2022/03/25 06:49:44;;;;;;;76.88;27.38;;;4.90;99.90;;;;;;5084138;28;20362;-70
2022/03/25 06:52:11;;;;;;;79.07;27.00;;;4.90;99.90;;;;;;5084007;28;20044;-70
2022/03/25 06:54:37;;;;;;;164.18;30.75;;;5.00;99.90;;;;;;5083065;28;20025;-70
2022/03/25 06:57:03;;;;;;;62.65;25.90;;;5.00;99.90;;;;;;5082726;28;20027;-69
2022/03/25 06:59:29;;;;;;;76.38;25.55;;;5.10;99.90;;;;;;5084168;28;20255;-70
2022/03/25 07:01:55;;;;;;;63.38;25.92;;;5.20;99.90;;;;;;5081300;28;20154;-70
2022/03/25 07:04:21;;;;;;;55.00;25.10;;;5.20;99.90;;;;;;5082962;28;20038;-71
2022/03/25 07:06:49;;;;;;;65.55;24.88;;;5.30;99.90;;;;;;5082200;28;20028;-71
2022/03/25 07:09:15;;;;;;;66.70;25.55;;;5.30;99.90;;;;;;5082859;28;20240;-71
2022/03/25 07:11:41;;;;;;;69.63;26.63;;;5.40;99.90;;;;;;5068479;28;20040;-71
2022/03/25 07:14:06;;;;;;;60.22;26.02;;;5.40;99.90;;;;;;5079535;28;20092;-71
2022/03/25 07:16:32;;;;;;;57.75;25.65;;;5.60;99.90;;;;;;5063801;28;20032;-71
2022/03/25 07:18:59;;;;;;;71.40;25.50;;;5.60;99.90;;;;;;5063410;28;20029;-69
2022/03/25 07:21:25;;;;;;;64.15;24.73;;;5.70;99.90;;;;;;5063352;28;20084;-70
2022/03/25 07:23:51;;;;;;;51.83;25.02;;;5.80;99.90;;;;;;5063791;28;20024;-70
2022/03/25 07:26:17;;;;;;;57.85;24.98;;;5.90;99.90;;;;;;5063514;28;20095;-71
2022/03/25 07:28:44;;;;;;;56.70;24.83;;;6.00;99.90;;;;;;5079069;28;20023;-68
2022/03/25 07:31:10;;;;;;;55.83;26.63;;;6.10;99.90;;;;;;5063213;28;20020;-68
2022/03/25 07:33:36;;;;;;;63.63;26.35;;;6.20;99.90;;;;;;5062944;28;20074;-71
2022/03/25 07:36:02;;;;;;;52.45;25.27;;;6.20;99.90;;;;;;5080117;28;20024;-70
2022/03/25 07:38:28;;;;;;;55.85;26.38;;;6.20;99.90;;;;;;5081445;28;20035;-71
2022/03/25 07:40:55;;;;;;;57.63;27.25;;;6.30;99.90;;;;;;5083162;28;20043;-70
2022/03/25 07:43:22;;;;;;;57.58;25.80;;;6.40;99.90;;;;;;5098898;28;20353;-70
2022/03/25 07:45:48;;;;;;;56.75;25.73;;;6.50;99.90;;;;;;5082402;28;20016;-70
2022/03/25 07:48:14;;;;;;;62.20;25.77;;;6.50;99.90;;;;;;5082884;28;20121;-70
2022/03/25 07:50:40;;;;;;;60.53;26.90;;;6.70;99.80;;;;;;5082707;28;20020;-70
2022/03/25 07:53:05;;;;;;;55.45;25.33;;;6.80;99.70;;;;;;5083070;28;20055;-71
2022/03/25 07:55:31;;;;;;;56.80;25.98;;;6.90;99.50;;;;;;5064592;28;20024;-70
2022/03/25 07:57:57;;;;;;;70.50;26.45;;;6.90;99.50;;;;;;5082846;28;20095;-70
2022/03/25 08:00:24;;;;;;;66.82;26.85;;;7.00;99.20;;;;;;5098855;28;20074;-70
2022/03/25 08:02:52;;;;;;;58.25;27.35;;;7.00;99.10;;;;;;5079056;28;20095;-69
2022/03/25 08:05:18;;;;;;;56.28;26.42;;;7.10;99.00;;;;;;5064942;28;20207;-72
2022/03/25 08:07:52;;;;;;;59.28;28.08;;;7.20;98.90;;;;;;5081013;28;20024;-70
2022/03/25 08:10:21;;;;;;;66.63;28.40;;;7.40;98.90;;;;;;5078107;28;20021;-69
2022/03/25 08:12:48;;;;;;;70.93;28.85;;;7.50;98.80;;;;;;5062871;28;20028;-69
2022/03/25 08:15:14;;;;;;;57.33;28.95;;;7.60;98.80;;;;;;5062737;28;20056;-71
2022/03/25 08:18:07;;;;;;;65.93;30.02;;;7.70;98.10;;;;;;5081139;28;20021;-72
2022/03/25 08:20:37;;;;;;;58.63;28.40;;;7.90;97.80;;;;;;5081711;28;20031;-70
2022/03/25 08:23:05;;;;;;;62.58;29.10;;;8.00;97.20;;;;;;5082468;28;20028;-71
2022/03/25 08:28:18;;;;;;;69.45;29.00;;;8.40;96.60;;;;;;5081651;28;20021;-71
2022/03/25 08:30:45;;;;;;;61.85;29.40;;;8.50;96.20;;;;;;5081370;28;20219;-70
2022/03/25 08:33:11;;;;;;;60.65;29.30;;;8.60;95.70;;;;;;5082766;28;20051;-71
2022/03/25 08:35:38;;;;;;;66.90;30.60;;;8.80;95.70;;;;;;5067886;28;20032;-73
2022/03/25 08:38:04;;;;;;;77.57;32.50;;;8.90;94.80;;;;;;5073116;28;20021;-70
2022/03/25 08:40:32;;;;;;;67.80;31.70;;;9.00;94.90;;;;;;5075100;28;20020;-71
2022/03/25 08:42:58;;;;;;;64.10;32.08;;;9.10;94.60;;;;;;5078844;28;20212;-72
2022/03/25 08:45:24;;;;;;;66.72;30.73;;;9.20;94.50;;;;;;5082493;28;20046;-71
2022/03/25 08:47:51;;;;;;;60.30;29.88;;;9.20;94.40;;;;;;5081331;28;20024;-71
2022/03/25 08:50:18;;;;;;;64.82;32.15;;;9.40;94.30;;;;;;5081615;28;20016;-72
2022/03/25 08:52:45;;;;;;;63.10;31.02;;;9.50;94.10;;;;;;5080786;28;20052;-70
2022/03/25 08:55:11;;;;;;;66.45;31.95;;;9.50;93.80;;;;;;5081216;28;20236;-72
2022/03/25 08:57:38;;;;;;;68.78;32.47;;;9.60;93.90;;;;;;5082144;28;20032;-71
2022/03/25 09:00:10;;;;;;;64.47;31.35;;;9.80;94.10;;;;;;5080893;28;20075;-73
2022/03/25 09:02:36;;;;;;;;;;;10.00;93.90;;;;;;5079994;28;20016;-71
2022/03/25 09:05:02;;;;;;;75.53;32.85;;;10.10;93.20;;;;;;5081787;28;19900;-72
2022/03/25 09:07:28;;;;;;;75.60;34.38;;;10.20;93.10;;;;;;5081607;28;20027;-70
2022/03/25 09:09:53;;;;;;;67.85;32.38;;;10.30;93.00;;;;;;5085270;28;20032;-71
2022/03/25 09:12:19;;;;;;;66.43;32.10;;;10.30;92.90;;;;;;5081604;28;20328;-71
2022/03/25 09:14:45;;;;;;;73.90;32.92;;;10.40;92.80;;;;;;5065870;28;20036;-71
2022/03/25 09:17:10;;;;;;;71.05;34.45;;;10.50;92.50;;;;;;5065847;28;20063;-72
2022/03/25 09:19:36;;;;;;;77.88;33.92;;;10.50;92.40;;;;;;5064702;28;20208;-70
2022/03/25 09:22:02;;;;;;;73.88;34.58;;;10.50;92.30;;;;;;5084119;28;20021;-70
2022/03/25 09:24:28;;;;;;;69.95;31.48;;;10.60;92.40;;;;;;5085374;28;20024;-71
2022/03/25 09:26:53;;;;;;;74.25;35.72;;;10.70;92.50;;;;;;5054046;28;20020;-69
2022/03/25 09:29:19;;;;;;;74.22;35.38;;;10.90;91.80;;;;;;5081196;28;20039;-70
2022/03/25 09:31:44;;;;;;;80.13;37.28;;;11.00;91.70;;;;;;5081205;28;20017;-72
2022/03/25 09:36:57;;;;;;;74.00;37.00;;;11.30;90.90;;;;;;5050339;28;20013;-70
2022/03/25 09:39:23;;;;;;;81.78;36.47;;;11.40;90.40;;;;;;5064430;28;20324;-71
2022/03/25 09:41:50;;;;;;;70.68;34.13;;;11.40;90.50;;;;;;5063257;28;20208;-72
2022/03/25 09:44:17;;;;;;;84.82;36.40;;;11.50;90.60;;;;;;5081275;28;20087;-73
2022/03/25 09:46:43;;;;;;;75.18;36.55;;;11.60;90.30;;;;;;5084154;28;20016;-69
2022/03/25 09:49:10;;;;;;;73.65;36.45;;;11.90;90.30;;;;;;5085026;28;20247;-69
2022/03/25 09:51:36;;;;;;;85.60;38.58;;;12.00;89.60;;;;;;5084601;28;20076;-71
2022/03/25 09:54:03;;;;;;;77.93;36.95;;;12.10;89.10;;;;;;5085013;28;20047;-71
2022/03/25 09:56:29;;;;;;;77.47;36.85;;;12.30;88.90;;;;;;5083556;28;20351;-69
2022/03/25 09:58:55;;;;;;;80.13;36.30;;;12.40;88.00;;;;;;5084440;28;20055;-69
2022/03/25 10:01:20;;;;;;;76.45;35.08;;;12.60;83.40;;;;;;5084151;28;20085;-71
2022/03/25 10:03:46;;;;;;;71.50;33.97;;;12.70;82.60;;;;;;5081963;28;20303;-70
2022/03/25 10:06:13;;;;;;;74.68;35.80;;;12.80;82.20;;;;;;5100380;28;20263;-69
2022/03/25 10:08:38;;;;;;;78.68;36.53;;;12.90;82.30;;;;;;5083757;28;20032;-70
2022/03/25 10:11:27;;;;;;;75.53;37.03;;;13.00;82.20;;;;;;5074614;28;20271;-71
2022/03/25 10:14:19;;;;;;;72.78;33.90;;;13.00;81.80;;;;;;5076468;28;20255;-70
2022/03/25 10:16:46;;;;;;;76.78;34.53;;;13.10;81.20;;;;;;5076811;28;20033;-71
2022/03/25 10:19:17;;;;;;;66.38;31.98;;;13.20;81.60;;;;;;5078833;28;20029;-70
2022/03/25 10:22:00;;;;;;;67.70;31.87;;;13.40;79.80;;;;;;5063974;28;20021;-70
2022/03/25 10:24:46;;;;;;;62.30;30.60;;;13.50;77.30;;;;;;5079745;28;20279;-69
2022/03/25 10:27:13;;;;;;;70.40;33.47;;;13.70;77.40;;;;;;5064147;28;20029;-73
2022/03/25 10:29:38;;;;;;;70.90;32.85;;;13.80;78.10;;;;;;5064232;28;20070;-70
2022/03/25 10:32:08;;;;;;;63.20;30.88;;;13.80;78.00;;;;;;5062978;28;20020;-71
2022/03/25 10:34:37;;;;;;;70.43;32.83;;;14.00;78.70;;;;;;5084757;28;20012;-70
2022/03/25 10:37:05;;;;;;;68.30;32.13;;;14.30;76.70;;;;;;5066315;28;20033;-71
2022/03/25 10:39:32;;;;;;;65.70;32.80;;;14.30;75.40;;;;;;5082591;28;20151;-72
2022/03/25 10:41:59;;;;;;;66.85;32.35;;;14.40;74.90;;;;;;5083987;28;20031;-72
2022/03/25 10:44:38;;;;;;;70.13;33.17;;;14.50;74.00;;;;;;5060849;28;20016;-71
2022/03/25 10:47:21;;;;;;;71.38;33.00;;;14.60;73.70;;;;;;5074514;28;20020;-71
2022/03/25 10:49:48;;;;;;;66.88;31.52;;;14.70;73.80;;;;;;5082235;28;20028;-69
2022/03/25 10:52:31;;;;;;;66.75;32.25;;;14.80;73.10;;;;;;5063028;28;20045;-72
2022/03/25 10:55:19;;;;;;;68.15;32.80;;;14.90;72.80;;;;;;5066005;28;20242;-71
2022/03/25 10:57:49;;;;;;;63.15;30.60;;;14.90;72.20;;;;;;5074442;28;20037;-71
2022/03/25 11:00:15;;;;;;;65.43;32.13;;;15.00;72.00;;;;;;5063332;28;20021;-70
2022/03/25 11:02:42;;;;;;;67.30;31.63;;;15.10;71.50;;;;;;5068136;28;20300;-71
2022/03/25 11:05:10;;;;;;;59.10;30.77;;;15.20;71.30;;;;;;5079916;28;20323;-70
2022/03/25 11:07:37;;;;;;;69.10;33.42;;;15.30;71.40;;;;;;5099075;28;20311;-71
2022/03/25 11:10:03;;;;;;;60.97;29.80;;;15.20;71.40;;;;;;5080701;28;20229;-71
2022/03/25 11:12:30;;;;;;;59.60;29.30;;;15.30;70.10;;;;;;5061597;28;20210;-71
2022/03/25 11:14:58;;;;;;;60.78;28.02;;;15.30;69.20;;;;;;5063119;28;20025;-72
2022/03/25 11:17:33;;;;;;;58.30;28.63;;;15.30;68.80;;;;;;5063180;28;20048;-70
2022/03/25 11:20:00;;;;;;;57.10;27.60;;;15.40;70.70;;;;;;5062699;28;20056;-69
2022/03/25 11:22:27;;;;;;;59.65;27.02;;;15.50;69.20;;;;;;5062903;28;20017;-73
2022/03/25 11:24:57;;;;;;;50.65;26.35;;;15.60;68.90;;;;;;5061911;28;20020;-71
2022/03/25 11:27:27;;;;;;;47.05;23.88;;;15.60;66.10;;;;;;5074218;28;20227;-70
2022/03/25 11:29:57;;;;;;;46.47;22.50;;;15.70;66.20;;;;;;5065177;28;20155;-71
2022/03/25 11:32:24;;;;;;;45.35;21.60;;;15.70;65.30;;;;;;5081639;28;20028;-72
2022/03/25 11:35:20;;;;;;;38.67;19.95;;;15.70;64.30;;;;;;5075372;28;20020;-72
2022/03/25 11:37:46;;;;;;;37.13;17.92;;;15.80;63.40;;;;;;5061663;28;20067;-72
2022/03/25 11:40:25;;;;;;;38.53;16.90;;;16.00;59.10;;;;;;5062271;28;20110;-73
2022/03/25 11:42:53;;;;;;;33.55;16.80;;;15.90;59.20;;;;;;5062047;28;20312;-71
2022/03/25 11:45:34;;;;;;;32.45;15.70;;;16.00;57.90;;;;;;5062909;28;20033;-73
2022/03/25 11:48:32;;;;;;;40.45;14.55;;;16.00;58.20;;;;;;5062843;28;20088;-70
2022/03/25 11:50:59;;;;;;;38.78;15.20;;;16.20;55.90;;;;;;5061659;28;20083;-70
2022/03/25 11:53:30;;;;;;;28.20;14.60;;;16.20;56.50;;;;;;5061114;28;20049;-72
2022/03/25 11:56:06;;;;;;;32.15;15.15;;;16.20;54.60;;;;;;5061812;28;20104;-69
2022/03/25 11:58:38;;;;;;;35.70;16.63;;;16.20;55.30;;;;;;5082707;28;20072;-70
2022/03/25 12:01:18;;;;;;;35.50;16.38;;;16.20;55.30;;;;;;5082649;28;20091;-69
2022/03/25 12:03:52;;;;;;;35.65;16.92;;;16.20;55.40;;;;;;5080956;28;20032;-69
2022/03/25 12:06:26;;;;;;;42.72;18.35;;;16.20;56.60;;;;;;5096383;28;20020;-68
2022/03/25 12:09:15;;;;;;;41.33;17.52;;;16.20;56.80;;;;;;5080749;28;20042;-69
2022/03/25 12:11:50;;;;;;;33.83;17.40;;;16.20;57.60;;;;;;5068972;28;20020;-72
2022/03/25 12:14:19;;;;;;;50.53;18.60;;;16.20;57.60;;;;;;5061692;28;20056;-71
2022/03/25 12:17:03;;;;;;;33.88;15.20;;;16.20;57.20;;;;;;5062028;28;20025;-69
2022/03/25 12:19:45;;;;;;;37.88;17.10;;;16.30;56.40;;;;;;5062559;28;20025;-70
2022/03/25 12:22:29;;;;;;;39.83;17.67;;;16.30;57.50;;;;;;5060326;28;20035;-72
2022/03/25 12:24:58;;;;;;;32.75;15.27;;;16.30;57.70;;;;;;5077413;28;20323;-70
2022/03/25 12:27:24;;;;;;;34.20;15.25;;;16.40;55.60;;;;;;5062396;28;20200;-70
2022/03/25 12:29:52;;;;;;;36.28;15.57;;;16.40;55.10;;;;;;5061984;28;20021;-69
2022/03/25 12:32:19;;;;;;;36.63;16.85;;;16.40;56.50;;;;;;5061614;28;20354;-68
2022/03/25 12:35:06;;;;;;;40.15;18.98;;;16.50;56.70;;;;;;5077064;28;20044;-68
2022/03/25 12:38:12;;;;;;;34.42;17.13;;;16.50;56.60;;;;;;5063485;28;20354;-68
2022/03/25 12:40:38;;;;;;;37.28;18.15;;;16.40;56.70;;;;;;5073141;28;20315;-70
2022/03/25 12:43:08;;;;;;;37.30;18.48;;;16.50;57.30;;;;;;5084126;28;20047;-71